sensor_id;sensor_type;location;lat;lon;timestamp;P1;durP1;ratioP1;P2;durP2;ratioP2
18503;SDS011;9381;54.244;10.074;2022-07-21T00:03:52;28.43;;;20.10;;
18503;SDS011;9381;54.244;10.074;2022-07-21T00:08:52;23.53;;;19.57;;
18503;SDS011;9381;54.244;10.074;2022-07-21T00:13:52;29.67;;;20.03;;
18503;SDS011;9381;54.244;10.074;2022-07-21T00:18:53;30.43;;;20.27;;
18503;SDS011;9381;54.244;10.074;2022-07-21T00:23:54;27.23;;;19.27;;
18503;SDS011;9381;54.244;10.074;2022-07-21T00:28:54;24.70;;;19.30;;
18503;SDS011;9381;54.244;10.074;2022-07-21T00:33:55;24.27;;;18.40;;
18503;SDS011;9381;54.244;10.074;2022-07-21T00:38:55;28.83;;;20.97;;
18503;SDS011;9381;54.244;10.074;2022-07-21T00:43:55;31.17;;;20.20;;
18503;SDS011;9381;54.244;10.074;2022-07-21T00:48:56;23.67;;;18.17;;
18503;SDS011;9381;54.244;10.074;2022-07-21T00:53:56;28.27;;;19.47;;
18503;SDS011;9381;54.244;10.074;2022-07-21T00:58:56;28.00;;;19.30;;
18503;SDS011;9381;54.244;10.074;2022-07-21T01:03:57;25.33;;;19.83;;
18503;SDS011;9381;54.244;10.074;2022-07-21T01:08:57;30.43;;;20.17;;
18503;SDS011;9381;54.244;10.074;2022-07-21T01:13:58;26.03;;;19.23;;
18503;SDS011;9381;54.244;10.074;2022-07-21T01:18:58;28.97;;;19.10;;
18503;SDS011;9381;54.244;10.074;2022-07-21T01:23:59;29.00;;;20.67;;
18503;SDS011;9381;54.244;10.074;2022-07-21T01:28:59;28.13;;;20.90;;
18503;SDS011;9381;54.244;10.074;2022-07-21T01:34:00;30.20;;;21.43;;
18503;SDS011;9381;54.244;10.074;2022-07-21T01:39:00;24.40;;;19.67;;
18503;SDS011;9381;54.244;10.074;2022-07-21T01:44:19;31.43;;;20.67;;
18503;SDS011;9381;54.244;10.074;2022-07-21T01:49:20;32.77;;;20.93;;
18503;SDS011;9381;54.244;10.074;2022-07-21T01:54:21;24.50;;;19.97;;
18503;SDS011;9381;54.244;10.074;2022-07-21T01:59:21;30.03;;;21.30;;
18503;SDS011;9381;54.244;10.074;2022-07-21T02:04:21;32.93;;;21.90;;
18503;SDS011;9381;54.244;10.074;2022-07-21T02:09:22;29.93;;;22.07;;
18503;SDS011;9381;54.244;10.074;2022-07-21T02:14:22;29.07;;;21.80;;
18503;SDS011;9381;54.244;10.074;2022-07-21T02:19:23;25.60;;;19.60;;
18503;SDS011;9381;54.244;10.074;2022-07-21T02:24:23;27.40;;;20.00;;
18503;SDS011;9381;54.244;10.074;2022-07-21T02:29:23;25.80;;;20.40;;
18503;SDS011;9381;54.244;10.074;2022-07-21T02:34:23;27.70;;;20.03;;
18503;SDS011;9381;54.244;10.074;2022-07-21T02:39:24;27.90;;;21.53;;
18503;SDS011;9381;54.244;10.074;2022-07-21T02:44:26;26.37;;;20.57;;
18503;SDS011;9381;54.244;10.074;2022-07-21T02:49:26;33.40;;;23.10;;
18503;SDS011;9381;54.244;10.074;2022-07-21T02:54:26;30.90;;;23.17;;
18503;SDS011;9381;54.244;10.074;2022-07-21T02:59:27;31.57;;;24.90;;
18503;SDS011;9381;54.244;10.074;2022-07-21T03:04:27;29.07;;;24.53;;
18503;SDS011;9381;54.244;10.074;2022-07-21T03:09:27;39.23;;;24.70;;
18503;SDS011;9381;54.244;10.074;2022-07-21T03:14:28;36.07;;;25.03;;
18503;SDS011;9381;54.244;10.074;2022-07-21T03:19:28;41.27;;;26.40;;
18503;SDS011;9381;54.244;10.074;2022-07-21T03:24:29;36.87;;;26.97;;
18503;SDS011;9381;54.244;10.074;2022-07-21T03:29:32;34.60;;;26.07;;
18503;SDS011;9381;54.244;10.074;2022-07-21T03:34:32;34.13;;;26.67;;
18503;SDS011;9381;54.244;10.074;2022-07-21T03:39:32;32.43;;;24.70;;
18503;SDS011;9381;54.244;10.074;2022-07-21T03:44:32;39.00;;;24.83;;
18503;SDS011;9381;54.244;10.074;2022-07-21T03:49:33;35.20;;;23.57;;
18503;SDS011;9381;54.244;10.074;2022-07-21T03:54:33;32.33;;;23.27;;
18503;SDS011;9381;54.244;10.074;2022-07-21T03:59:33;36.23;;;21.30;;
18503;SDS011;9381;54.244;10.074;2022-07-21T04:04:34;31.43;;;19.60;;
18503;SDS011;9381;54.244;10.074;2022-07-21T04:09:34;30.23;;;19.57;;
18503;SDS011;9381;54.244;10.074;2022-07-21T04:14:34;31.17;;;20.53;;
18503;SDS011;9381;54.244;10.074;2022-07-21T04:19:35;33.70;;;19.67;;
18503;SDS011;9381;54.244;10.074;2022-07-21T04:24:35;25.03;;;18.00;;
18503;SDS011;9381;54.244;10.074;2022-07-21T04:29:35;30.37;;;18.83;;
18503;SDS011;9381;54.244;10.074;2022-07-21T04:34:35;38.20;;;20.27;;
18503;SDS011;9381;54.244;10.074;2022-07-21T04:39:36;31.13;;;18.20;;
18503;SDS011;9381;54.244;10.074;2022-07-21T04:44:36;25.43;;;17.83;;
18503;SDS011;9381;54.244;10.074;2022-07-21T04:49:36;35.60;;;20.33;;
18503;SDS011;9381;54.244;10.074;2022-07-21T04:54:37;35.45;;;19.30;;
18503;SDS011;9381;54.244;10.074;2022-07-21T04:59:37;32.97;;;18.97;;
18503;SDS011;9381;54.244;10.074;2022-07-21T05:04:38;31.37;;;18.77;;
18503;SDS011;9381;54.244;10.074;2022-07-21T05:09:39;29.87;;;18.37;;
18503;SDS011;9381;54.244;10.074;2022-07-21T05:14:39;25.50;;;14.68;;
18503;SDS011;9381;54.244;10.074;2022-07-21T05:19:39;23.30;;;14.97;;
18503;SDS011;9381;54.244;10.074;2022-07-21T05:24:40;27.60;;;13.37;;
18503;SDS011;9381;54.244;10.074;2022-07-21T05:29:41;23.47;;;13.37;;
18503;SDS011;9381;54.244;10.074;2022-07-21T05:34:41;28.07;;;12.57;;
18503;SDS011;9381;54.244;10.074;2022-07-21T05:39:41;28.03;;;13.47;;
18503;SDS011;9381;54.244;10.074;2022-07-21T05:44:42;24.53;;;12.03;;
18503;SDS011;9381;54.244;10.074;2022-07-21T05:49:42;22.17;;;10.87;;
18503;SDS011;9381;54.244;10.074;2022-07-21T05:54:42;23.47;;;9.80;;
18503;SDS011;9381;54.244;10.074;2022-07-21T05:59:43;25.50;;;10.90;;
18503;SDS011;9381;54.244;10.074;2022-07-21T06:04:44;23.53;;;10.73;;
18503;SDS011;9381;54.244;10.074;2022-07-21T06:09:45;21.70;;;10.23;;
18503;SDS011;9381;54.244;10.074;2022-07-21T06:14:45;19.40;;;10.73;;
18503;SDS011;9381;54.244;10.074;2022-07-21T06:19:45;17.57;;;9.60;;
18503;SDS011;9381;54.244;10.074;2022-07-21T06:24:46;20.42;;;10.45;;
18503;SDS011;9381;54.244;10.074;2022-07-21T06:29:46;16.67;;;8.87;;
18503;SDS011;9381;54.244;10.074;2022-07-21T06:34:46;18.07;;;9.63;;
18503;SDS011;9381;54.244;10.074;2022-07-21T06:39:47;19.83;;;10.07;;
18503;SDS011;9381;54.244;10.074;2022-07-21T06:44:47;21.73;;;10.93;;
18503;SDS011;9381;54.244;10.074;2022-07-21T06:49:47;25.03;;;10.93;;
18503;SDS011;9381;54.244;10.074;2022-07-21T06:54:48;18.10;;;10.70;;
18503;SDS011;9381;54.244;10.074;2022-07-21T06:59:48;20.87;;;11.23;;
18503;SDS011;9381;54.244;10.074;2022-07-21T07:04:49;13.03;;;9.47;;
18503;SDS011;9381;54.244;10.074;2022-07-21T07:09:49;15.20;;;9.00;;
18503;SDS011;9381;54.244;10.074;2022-07-21T07:14:50;14.03;;;9.20;;
18503;SDS011;9381;54.244;10.074;2022-07-21T07:19:50;15.33;;;9.17;;
18503;SDS011;9381;54.244;10.074;2022-07-21T07:24:50;17.57;;;9.07;;
18503;SDS011;9381;54.244;10.074;2022-07-21T07:29:51;11.37;;;8.20;;
18503;SDS011;9381;54.244;10.074;2022-07-21T07:34:51;14.70;;;9.17;;
18503;SDS011;9381;54.244;10.074;2022-07-21T07:39:52;17.50;;;9.23;;
18503;SDS011;9381;54.244;10.074;2022-07-21T07:44:53;12.20;;;8.90;;
18503;SDS011;9381;54.244;10.074;2022-07-21T07:49:53;13.67;;;8.27;;
18503;SDS011;9381;54.244;10.074;2022-07-21T07:54:54;13.93;;;8.13;;
18503;SDS011;9381;54.244;10.074;2022-07-21T07:59:54;13.60;;;8.53;;
18503;SDS011;9381;54.244;10.074;2022-07-21T08:04:55;11.97;;;7.47;;
18503;SDS011;9381;54.244;10.074;2022-07-21T08:09:55;12.00;;;7.83;;
18503;SDS011;9381;54.244;10.074;2022-07-21T08:14:56;12.63;;;7.77;;
18503;SDS011;9381;54.244;10.074;2022-07-21T08:19:56;11.23;;;7.23;;
18503;SDS011;9381;54.244;10.074;2022-07-21T08:24:57;16.73;;;7.53;;
18503;SDS011;9381;54.244;10.074;2022-07-21T08:29:57;14.70;;;7.80;;
18503;SDS011;9381;54.244;10.074;2022-07-21T08:34:57;13.47;;;7.50;;
18503;SDS011;9381;54.244;10.074;2022-07-21T08:39:58;11.33;;;8.00;;
18503;SDS011;9381;54.244;10.074;2022-07-21T08:44:58;12.17;;;7.53;;
18503;SDS011;9381;54.244;10.074;2022-07-21T08:49:59;13.60;;;8.03;;
18503;SDS011;9381;54.244;10.074;2022-07-21T08:55:00;14.27;;;7.60;;
18503;SDS011;9381;54.244;10.074;2022-07-21T09:00:02;14.50;;;7.20;;
18503;SDS011;9381;54.244;10.074;2022-07-21T09:05:03;13.27;;;7.87;;
18503;SDS011;9381;54.244;10.074;2022-07-21T09:10:07;16.37;;;9.37;;
18503;SDS011;9381;54.244;10.074;2022-07-21T09:15:14;17.90;;;9.93;;
18503;SDS011;9381;54.244;10.074;2022-07-21T09:20:25;20.03;;;9.83;;
18503;SDS011;9381;54.244;10.074;2022-07-21T09:25:35;19.90;;;9.67;;
18503;SDS011;9381;54.244;10.074;2022-07-21T09:30:47;17.23;;;9.50;;
18503;SDS011;9381;54.244;10.074;2022-07-21T09:41:13;18.33;;;7.80;;
18503;SDS011;9381;54.244;10.074;2022-07-21T09:46:23;13.60;;;6.57;;
18503;SDS011;9381;54.244;10.074;2022-07-21T09:51:26;12.43;;;6.70;;
18503;SDS011;9381;54.244;10.074;2022-07-21T09:56:32;13.50;;;6.57;;
18503;SDS011;9381;54.244;10.074;2022-07-21T10:01:35;10.90;;;6.80;;
18503;SDS011;9381;54.244;10.074;2022-07-21T10:06:37;9.63;;;4.97;;
18503;SDS011;9381;54.244;10.074;2022-07-21T10:11:39;7.93;;;5.00;;
18503;SDS011;9381;54.244;10.074;2022-07-21T10:16:41;11.80;;;5.93;;
18503;SDS011;9381;54.244;10.074;2022-07-21T10:27:06;11.77;;;5.57;;
18503;SDS011;9381;54.244;10.074;2022-07-21T10:32:11;7.83;;;5.50;;
18503;SDS011;9381;54.244;10.074;2022-07-21T10:37:42;9.23;;;5.27;;
18503;SDS011;9381;54.244;10.074;2022-07-21T10:47:59;8.83;;;5.80;;
18503;SDS011;9381;54.244;10.074;2022-07-21T10:53:04;9.80;;;6.57;;
18503;SDS011;9381;54.244;10.074;2022-07-21T10:58:16;10.33;;;6.13;;
18503;SDS011;9381;54.244;10.074;2022-07-21T11:08:30;10.60;;;6.30;;
18503;SDS011;9381;54.244;10.074;2022-07-21T11:13:32;10.57;;;7.07;;
18503;SDS011;9381;54.244;10.074;2022-07-21T11:18:59;12.63;;;8.23;;
18503;SDS011;9381;54.244;10.074;2022-07-21T11:23:59;10.20;;;8.47;;
18503;SDS011;9381;54.244;10.074;2022-07-21T11:29:04;14.57;;;9.60;;
18503;SDS011;9381;54.244;10.074;2022-07-21T11:34:05;12.47;;;10.37;;
18503;SDS011;9381;54.244;10.074;2022-07-21T11:39:08;16.57;;;12.97;;
18503;SDS011;9381;54.244;10.074;2022-07-21T11:44:10;20.23;;;15.30;;
18503;SDS011;9381;54.244;10.074;2022-07-21T11:49:11;20.27;;;16.50;;
18503;SDS011;9381;54.244;10.074;2022-07-21T11:54:19;24.63;;;18.53;;
18503;SDS011;9381;54.244;10.074;2022-07-21T11:59:30;23.37;;;17.93;;
18503;SDS011;9381;54.244;10.074;2022-07-21T12:09:37;22.70;;;15.87;;
18503;SDS011;9381;54.244;10.074;2022-07-21T12:14:42;21.50;;;16.80;;
18503;SDS011;9381;54.244;10.074;2022-07-21T12:19:44;27.20;;;18.33;;
18503;SDS011;9381;54.244;10.074;2022-07-21T12:24:49;23.67;;;17.60;;
18503;SDS011;9381;54.244;10.074;2022-07-21T12:29:51;17.77;;;15.60;;
18503;SDS011;9381;54.244;10.074;2022-07-21T12:34:52;12.63;;;11.37;;
18503;SDS011;9381;54.244;10.074;2022-07-21T12:40:01;12.80;;;9.43;;
18503;SDS011;9381;54.244;10.074;2022-07-21T12:45:13;10.67;;;9.37;;
18503;SDS011;9381;54.244;10.074;2022-07-21T12:50:14;7.30;;;6.60;;
18503;SDS011;9381;54.244;10.074;2022-07-21T12:55:15;6.43;;;5.83;;
18503;SDS011;9381;54.244;10.074;2022-07-21T13:00:15;6.80;;;6.20;;
18503;SDS011;9381;54.244;10.074;2022-07-21T13:05:16;6.93;;;6.33;;
18503;SDS011;9381;54.244;10.074;2022-07-21T13:10:16;9.23;;;8.43;;
18503;SDS011;9381;54.244;10.074;2022-07-21T13:15:17;8.10;;;7.30;;
18503;SDS011;9381;54.244;10.074;2022-07-21T13:20:17;9.03;;;7.03;;
18503;SDS011;9381;54.244;10.074;2022-07-21T13:25:18;5.73;;;4.40;;
18503;SDS011;9381;54.244;10.074;2022-07-21T13:30:19;4.60;;;4.20;;
18503;SDS011;9381;54.244;10.074;2022-07-21T13:35:19;4.47;;;4.07;;
18503;SDS011;9381;54.244;10.074;2022-07-21T13:40:20;3.47;;;3.17;;
18503;SDS011;9381;54.244;10.074;2022-07-21T13:45:21;3.53;;;3.00;;
18503;SDS011;9381;54.244;10.074;2022-07-21T13:50:21;3.50;;;3.30;;
18503;SDS011;9381;54.244;10.074;2022-07-21T13:55:22;3.77;;;3.47;;
18503;SDS011;9381;54.244;10.074;2022-07-21T14:00:22;4.70;;;4.30;;
18503;SDS011;9381;54.244;10.074;2022-07-21T14:05:22;4.80;;;4.40;;
18503;SDS011;9381;54.244;10.074;2022-07-21T14:10:23;4.30;;;3.90;;
18503;SDS011;9381;54.244;10.074;2022-07-21T14:15:23;4.50;;;4.10;;
18503;SDS011;9381;54.244;10.074;2022-07-21T14:20:24;4.10;;;3.63;;
18503;SDS011;9381;54.244;10.074;2022-07-21T14:25:25;4.60;;;4.23;;
18503;SDS011;9381;54.244;10.074;2022-07-21T14:30:26;4.20;;;3.83;;
18503;SDS011;9381;54.244;10.074;2022-07-21T14:35:27;4.43;;;4.03;;
18503;SDS011;9381;54.244;10.074;2022-07-21T14:40:28;3.73;;;3.43;;
18503;SDS011;9381;54.244;10.074;2022-07-21T14:45:29;3.93;;;3.63;;
18503;SDS011;9381;54.244;10.074;2022-07-21T14:50:30;3.43;;;3.13;;
18503;SDS011;9381;54.244;10.074;2022-07-21T14:55:31;3.60;;;3.30;;
18503;SDS011;9381;54.244;10.074;2022-07-21T15:00:31;3.77;;;3.47;;
18503;SDS011;9381;54.244;10.074;2022-07-21T15:05:33;3.50;;;3.23;;
18503;SDS011;9381;54.244;10.074;2022-07-21T15:10:33;3.40;;;3.10;;
18503;SDS011;9381;54.244;10.074;2022-07-21T15:15:34;3.30;;;3.00;;
18503;SDS011;9381;54.244;10.074;2022-07-21T15:20:36;3.27;;;3.03;;
18503;SDS011;9381;54.244;10.074;2022-07-21T15:25:37;3.40;;;3.10;;
18503;SDS011;9381;54.244;10.074;2022-07-21T15:30:37;3.50;;;3.30;;
18503;SDS011;9381;54.244;10.074;2022-07-21T15:35:38;3.83;;;3.43;;
18503;SDS011;9381;54.244;10.074;2022-07-21T15:40:38;3.33;;;3.10;;
18503;SDS011;9381;54.244;10.074;2022-07-21T15:45:39;3.23;;;2.97;;
18503;SDS011;9381;54.244;10.074;2022-07-21T15:50:41;3.37;;;3.07;;
18503;SDS011;9381;54.244;10.074;2022-07-21T15:55:41;3.63;;;3.33;;
18503;SDS011;9381;54.244;10.074;2022-07-21T16:00:42;3.43;;;3.20;;
18503;SDS011;9381;54.244;10.074;2022-07-21T16:05:42;3.90;;;3.60;;
18503;SDS011;9381;54.244;10.074;2022-07-21T16:10:43;3.80;;;3.50;;
18503;SDS011;9381;54.244;10.074;2022-07-21T16:15:43;3.53;;;3.23;;
18503;SDS011;9381;54.244;10.074;2022-07-21T16:20:43;4.03;;;3.63;;
18503;SDS011;9381;54.244;10.074;2022-07-21T16:25:44;4.67;;;3.50;;
18503;SDS011;9381;54.244;10.074;2022-07-21T16:30:45;4.90;;;4.40;;
18503;SDS011;9381;54.244;10.074;2022-07-21T16:35:45;5.70;;;5.30;;
18503;SDS011;9381;54.244;10.074;2022-07-21T16:40:46;6.03;;;5.53;;
18503;SDS011;9381;54.244;10.074;2022-07-21T16:45:46;7.00;;;6.50;;
18503;SDS011;9381;54.244;10.074;2022-07-21T16:50:47;7.00;;;6.40;;
18503;SDS011;9381;54.244;10.074;2022-07-21T16:55:47;7.90;;;7.10;;
18503;SDS011;9381;54.244;10.074;2022-07-21T17:00:48;7.53;;;6.93;;
18503;SDS011;9381;54.244;10.074;2022-07-21T17:05:48;8.00;;;7.30;;
18503;SDS011;9381;54.244;10.074;2022-07-21T17:10:49;9.23;;;8.40;;
18503;SDS011;9381;54.244;10.074;2022-07-21T17:15:49;7.80;;;7.13;;
18503;SDS011;9381;54.244;10.074;2022-07-21T17:20:50;6.40;;;5.90;;
18503;SDS011;9381;54.244;10.074;2022-07-21T17:25:50;7.57;;;6.97;;
18503;SDS011;9381;54.244;10.074;2022-07-21T17:30:51;5.90;;;5.50;;
18503;SDS011;9381;54.244;10.074;2022-07-21T17:35:51;7.43;;;6.83;;
18503;SDS011;9381;54.244;10.074;2022-07-21T17:40:51;7.47;;;6.87;;
18503;SDS011;9381;54.244;10.074;2022-07-21T17:45:52;8.90;;;7.23;;
18503;SDS011;9381;54.244;10.074;2022-07-21T17:50:53;7.60;;;6.87;;
18503;SDS011;9381;54.244;10.074;2022-07-21T17:55:53;6.83;;;6.23;;
18503;SDS011;9381;54.244;10.074;2022-07-21T18:00:54;6.70;;;6.00;;
18503;SDS011;9381;54.244;10.074;2022-07-21T18:05:56;8.03;;;7.00;;
18503;SDS011;9381;54.244;10.074;2022-07-21T18:10:57;6.87;;;6.27;;
18503;SDS011;9381;54.244;10.074;2022-07-21T18:15:57;6.97;;;5.77;;
18503;SDS011;9381;54.244;10.074;2022-07-21T18:20:58;6.20;;;5.60;;
18503;SDS011;9381;54.244;10.074;2022-07-21T18:25:58;6.57;;;6.07;;
18503;SDS011;9381;54.244;10.074;2022-07-21T18:30:59;6.30;;;5.67;;
18503;SDS011;9381;54.244;10.074;2022-07-21T18:35:59;7.60;;;6.30;;
18503;SDS011;9381;54.244;10.074;2022-07-21T18:41:00;6.70;;;6.10;;
18503;SDS011;9381;54.244;10.074;2022-07-21T18:46:00;6.27;;;5.77;;
18503;SDS011;9381;54.244;10.074;2022-07-21T18:51:00;6.70;;;6.10;;
18503;SDS011;9381;54.244;10.074;2022-07-21T18:56:01;6.80;;;6.20;;
18503;SDS011;9381;54.244;10.074;2022-07-21T19:01:01;5.83;;;5.33;;
18503;SDS011;9381;54.244;10.074;2022-07-21T19:06:03;6.03;;;5.50;;
18503;SDS011;9381;54.244;10.074;2022-07-21T19:11:04;5.97;;;5.47;;
18503;SDS011;9381;54.244;10.074;2022-07-21T19:16:05;5.87;;;5.37;;
18503;SDS011;9381;54.244;10.074;2022-07-21T19:21:06;5.57;;;5.07;;
18503;SDS011;9381;54.244;10.074;2022-07-21T19:26:06;4.90;;;4.50;;
18503;SDS011;9381;54.244;10.074;2022-07-21T19:31:07;5.60;;;5.00;;
18503;SDS011;9381;54.244;10.074;2022-07-21T19:36:08;6.43;;;4.23;;
18503;SDS011;9381;54.244;10.074;2022-07-21T19:41:09;7.03;;;5.40;;
18503;SDS011;9381;54.244;10.074;2022-07-21T19:46:09;5.93;;;4.90;;
18503;SDS011;9381;54.244;10.074;2022-07-21T19:51:10;5.97;;;4.93;;
18503;SDS011;9381;54.244;10.074;2022-07-21T19:56:10;5.40;;;4.90;;
18503;SDS011;9381;54.244;10.074;2022-07-21T20:01:10;5.20;;;4.73;;
18503;SDS011;9381;54.244;10.074;2022-07-21T20:06:11;5.10;;;4.60;;
18503;SDS011;9381;54.244;10.074;2022-07-21T20:11:11;5.07;;;4.67;;
18503;SDS011;9381;54.244;10.074;2022-07-21T20:16:13;4.77;;;4.37;;
18503;SDS011;9381;54.244;10.074;2022-07-21T20:21:14;6.73;;;4.97;;
18503;SDS011;9381;54.244;10.074;2022-07-21T20:26:14;5.53;;;5.07;;
18503;SDS011;9381;54.244;10.074;2022-07-21T20:31:15;6.00;;;5.47;;
18503;SDS011;9381;54.244;10.074;2022-07-21T20:36:15;8.47;;;5.47;;
18503;SDS011;9381;54.244;10.074;2022-07-21T20:41:15;6.23;;;5.63;;
18503;SDS011;9381;54.244;10.074;2022-07-21T20:46:16;4.97;;;4.53;;
18503;SDS011;9381;54.244;10.074;2022-07-21T20:51:16;5.83;;;5.30;;
18503;SDS011;9381;54.244;10.074;2022-07-21T20:56:17;5.73;;;5.23;;
18503;SDS011;9381;54.244;10.074;2022-07-21T21:01:17;5.47;;;4.97;;
18503;SDS011;9381;54.244;10.074;2022-07-21T21:06:18;5.83;;;4.43;;
18503;SDS011;9381;54.244;10.074;2022-07-21T21:11:18;4.70;;;4.20;;
18503;SDS011;9381;54.244;10.074;2022-07-21T21:16:20;4.37;;;3.93;;
18503;SDS011;9381;54.244;10.074;2022-07-21T21:21:20;7.47;;;5.43;;
18503;SDS011;9381;54.244;10.074;2022-07-21T21:26:20;5.77;;;5.07;;
18503;SDS011;9381;54.244;10.074;2022-07-21T21:31:21;5.97;;;5.33;;
18503;SDS011;9381;54.244;10.074;2022-07-21T21:36:21;7.57;;;4.73;;
18503;SDS011;9381;54.244;10.074;2022-07-21T21:41:22;5.90;;;5.00;;
18503;SDS011;9381;54.244;10.074;2022-07-21T21:46:22;4.43;;;4.00;;
18503;SDS011;9381;54.244;10.074;2022-07-21T21:51:23;5.17;;;4.67;;
18503;SDS011;9381;54.244;10.074;2022-07-21T21:56:23;6.40;;;4.77;;
18503;SDS011;9381;54.244;10.074;2022-07-21T22:01:23;3.63;;;3.33;;
18503;SDS011;9381;54.244;10.074;2022-07-21T22:06:24;3.40;;;3.10;;
18503;SDS011;9381;54.244;10.074;2022-07-21T22:11:24;2.70;;;2.50;;
18503;SDS011;9381;54.244;10.074;2022-07-21T22:16:25;5.13;;;3.97;;
18503;SDS011;9381;54.244;10.074;2022-07-21T22:21:25;4.50;;;3.80;;
18503;SDS011;9381;54.244;10.074;2022-07-21T22:26:26;4.47;;;3.83;;
18503;SDS011;9381;54.244;10.074;2022-07-21T22:31:28;5.17;;;3.57;;
18503;SDS011;9381;54.244;10.074;2022-07-21T22:36:28;5.93;;;4.10;;
18503;SDS011;9381;54.244;10.074;2022-07-21T22:41:28;5.72;;;3.45;;
18503;SDS011;9381;54.244;10.074;2022-07-21T22:46:29;7.70;;;3.90;;
18503;SDS011;9381;54.244;10.074;2022-07-21T22:51:30;6.77;;;4.93;;
18503;SDS011;9381;54.244;10.074;2022-07-21T22:56:30;11.63;;;6.53;;
18503;SDS011;9381;54.244;10.074;2022-07-21T23:01:31;14.67;;;7.00;;
18503;SDS011;9381;54.244;10.074;2022-07-21T23:06:31;16.20;;;8.00;;
18503;SDS011;9381;54.244;10.074;2022-07-21T23:11:32;18.50;;;7.93;;
18503;SDS011;9381;54.244;10.074;2022-07-21T23:16:32;19.50;;;8.10;;
18503;SDS011;9381;54.244;10.074;2022-07-21T23:21:32;11.98;;;5.45;;
18503;SDS011;9381;54.244;10.074;2022-07-21T23:26:33;13.30;;;4.90;;
18503;SDS011;9381;54.244;10.074;2022-07-21T23:31:33;5.73;;;3.40;;
18503;SDS011;9381;54.244;10.074;2022-07-21T23:36:33;11.10;;;3.50;;
18503;SDS011;9381;54.244;10.074;2022-07-21T23:41:34;9.13;;;3.20;;
18503;SDS011;9381;54.244;10.074;2022-07-21T23:46:34;7.90;;;3.07;;
18503;SDS011;9381;54.244;10.074;2022-07-21T23:51:35;7.73;;;2.60;;
18503;SDS011;9381;54.244;10.074;2022-07-21T23:56:35;6.23;;;2.60;;
